Time;durP1;ratioP1;P1;durP2;ratioP2;P2;SDS_P1;SDS_P2;PMS_P1;PMS_P2;Temp;Humidity;BMP_temperature;BMP_pressure;BME280_temperature;BME280_humidity;BME280_pressure;Samples;Min_cycle;Max_cycle;Signal;HPM_P1;HPM_P2
2022/12/09 00:02:13;;;;;;;40.42;22.98;;;;;;;;;;5012903;28;100727;-69
2022/12/09 00:04:39;;;;;;;35.33;21.23;;;;;;;;;;5009185;28;99256;-69
2022/12/09 00:07:06;;;;;;;35.58;21.15;;;;;;;;;;5008779;28;99496;-69
2022/12/09 00:09:32;;;;;;;37.80;22.42;;;;;;;;;;5008595;28;98585;-69
2022/12/09 00:11:59;;;;;;;37.65;21.52;;;;;;;;;;5009575;28;99549;-68
2022/12/09 00:14:25;;;;;;;37.42;22.08;;;;;;;;;;5009722;28;102255;-69
2022/12/09 00:16:51;;;;;;;36.85;22.48;;;;;;;;;;5008821;28;98702;-69
2022/12/09 00:19:18;;;;;;;36.42;21.42;;;;;;;;;;5008654;28;99425;-69
2022/12/09 00:21:44;;;;;;;39.92;22.17;;;;;;;;;;5008251;28;99145;-68
2022/12/09 00:24:11;;;;;;;40.05;22.50;;;;;;;;;;5012888;28;98580;-67
2022/12/09 00:26:38;;;;;;;36.60;22.25;;;;;;;;;;5008850;28;99905;-68
2022/12/09 00:29:05;;;;;;;36.20;21.25;;;;;;;;;;5009143;28;99563;-69
2022/12/09 00:31:33;;;;;;;36.00;21.40;;;;;;;;;;5003197;28;99940;-69
2022/12/09 00:34:01;;;;;;;40.90;22.20;;;;;;;;;;4992418;28;99472;-68
2022/12/09 00:36:28;;;;;;;42.88;22.85;;;;;;;;;;4992171;28;99091;-69
2022/12/09 00:38:56;;;;;;;39.92;23.45;;;;;;;;;;5003806;28;99507;-69
2022/12/09 00:41:22;;;;;;;40.55;23.42;;;;;;;;;;4988843;28;99535;-68
2022/12/09 00:43:49;;;;;;;47.13;24.33;;;;;;;;;;4992616;28;98583;-69
2022/12/09 00:46:16;;;;;;;41.45;23.35;;;;;;;;;;5000417;28;98752;-68
2022/12/09 00:48:44;;;;;;;48.10;24.02;;;;;;;;;;5008826;28;98722;-68
2022/12/09 00:51:12;;;;;;;42.33;23.90;;;;;;;;;;5008930;28;99430;-69
2022/12/09 00:53:39;;;;;;;39.90;22.90;;;;;;;;;;5008929;28;101619;-68
2022/12/09 00:56:05;;;;;;;37.42;22.02;;;;;;;;;;5008858;28;98482;-69
2022/12/09 00:58:32;;;;;;;38.83;22.33;;;;;;;;;;5007682;28;99364;-69
2022/12/09 01:00:58;;;;;;;39.58;21.80;;;;;;;;;;5008512;28;99939;-69
2022/12/09 01:03:25;;;;;;;41.47;23.45;;;;;;;;;;5007345;28;98566;-68
2022/12/09 01:05:52;;;;;;;41.72;23.65;;;;;;;;;;5011752;28;99129;-68
2022/12/09 01:08:19;;;;;;;41.45;23.27;;;;;;;;;;5008818;28;98748;-69
2022/12/09 01:10:45;;;;;;;38.28;21.63;;;;;;;;;;5009401;28;99237;-68
2022/12/09 01:13:13;;;;;;;37.83;21.73;;;;;;;;;;5008553;28;100180;-68
2022/12/09 01:15:40;;;;;;;35.03;21.58;;;;;;;;;;5010069;28;98818;-68
2022/12/09 01:18:07;;;;;;;41.38;22.10;;;;;;;;;;5011754;28;99593;-69
2022/12/09 01:20:33;;;;;;;41.70;22.50;;;;;;;;;;5011734;28;99527;-69
2022/12/09 01:23:00;;;;;;;33.60;21.17;;;;;;;;;;5012518;28;98574;-69
2022/12/09 01:25:26;;;;;;;40.85;21.95;;;;;;;;;;5012174;28;99304;-68
2022/12/09 01:27:53;;;;;;;35.03;21.52;;;;;;;;;;5015076;28;100481;-69
2022/12/09 01:30:19;;;;;;;43.20;23.13;;;;;;;;;;5010881;28;99302;-69
2022/12/09 01:32:46;;;;;;;38.00;22.25;;;;;;;;;;5011683;28;99859;-69
2022/12/09 01:35:12;;;;;;;37.85;22.17;;;;;;;;;;5012593;28;97749;-69
2022/12/09 01:37:39;;;;;;;45.05;23.77;;;;;;;;;;5011119;28;99628;-68
2022/12/09 01:40:07;;;;;;;40.85;21.85;;;;;;;;;;5011615;28;99559;-69
2022/12/09 01:42:33;;;;;;;41.85;22.60;;;;;;;;;;5010172;28;99500;-69
2022/12/09 01:45:18;;;;;;;36.28;20.58;;;;;;;;;;5011926;28;99974;-69
2022/12/09 01:47:50;;;;;;;44.78;21.63;;;;;;;;;;5010547;28;100431;-69
2022/12/09 01:50:17;;;;;;;33.05;19.35;;;;;;;;;;5015398;28;98627;-69
2022/12/09 01:52:44;;;;;;;35.85;20.77;;;;;;;;;;5010086;28;99693;-68
2022/12/09 01:55:10;;;;;;;37.00;20.05;;;;;;;;;;5011807;28;98530;-68
2022/12/09 01:57:37;;;;;;;35.45;20.20;;;;;;;;;;5011535;28;99273;-69
2022/12/09 02:00:04;;;;;;;31.58;18.40;;;;;;;;;;5011931;28;99168;-68
2022/12/09 02:02:33;;;;;;;32.83;19.73;;;;;;;;;;5011563;28;98500;-69
2022/12/09 02:04:59;;;;;;;31.95;19.52;;;;;;;;;;5010689;28;100410;-69
2022/12/09 02:07:26;;;;;;;37.90;20.65;;;;;;;;;;5010532;28;100620;-69
2022/12/09 02:09:52;;;;;;;33.08;17.67;;;;;;;;;;5011274;28;98995;-68
2022/12/09 02:12:45;;;;;;;30.30;18.58;;;;;;;;;;5014517;28;99671;-68
2022/12/09 02:15:15;;;;;;;34.78;18.67;;;;;;;;;;5007852;28;98967;-69
2022/12/09 02:17:55;;;;;;;31.90;18.95;;;;;;;;;;5011563;28;99267;-69
2022/12/09 02:20:27;;;;;;;38.67;19.65;;;;;;;;;;5010791;28;99503;-68
2022/12/09 02:23:03;;;;;;;41.22;20.73;;;;;;;;;;5010016;28;99511;-68
2022/12/09 02:25:38;;;;;;;34.58;20.50;;;;;;;;;;5011895;28;99444;-69
2022/12/09 02:28:23;;;;;;;32.72;19.25;;;;;;;;;;5009756;28;99902;-68
2022/12/09 02:31:16;;;;;;;36.63;19.45;;;;;;;;;;5011306;28;98509;-68
2022/12/09 02:33:52;;;;;;;35.22;19.85;;;;;;;;;;5010747;28;99354;-68
2022/12/09 02:36:19;;;;;;;33.85;19.13;;;;;;;;;;5014073;28;99483;-68
2022/12/09 02:38:47;;;;;;;35.45;20.33;;;;;;;;;;5008352;28;99396;-68
2022/12/09 02:41:16;;;;;;;36.70;20.48;;;;;;;;;;4992188;28;101225;-68
2022/12/09 02:43:50;;;;;;;37.35;18.95;;;;;;;;;;4990896;28;98980;-69
2022/12/09 02:46:18;;;;;;;32.83;18.83;;;;;;;;;;5013426;28;99202;-69
2022/12/09 02:48:47;;;;;;;37.03;19.98;;;;;;;;;;5030877;27;99601;-69
2022/12/09 02:51:15;;;;;;;37.65;20.85;;;;;;;;;;5012938;27;97761;-68
2022/12/09 02:53:43;;;;;;;38.30;19.23;;;;;;;;;;5010971;28;101605;-69
2022/12/09 02:56:11;;;;;;;31.08;18.77;;;;;;;;;;5013851;28;99538;-68
2022/12/09 02:58:37;;;;;;;31.17;18.63;;;;;;;;;;5010297;28;99440;-68
2022/12/09 03:01:04;;;;;;;33.03;19.38;;;;;;;;;;5010447;28;101353;-69
2022/12/09 03:03:32;;;;;;;32.58;19.05;;;;;;;;;;5009741;28;98551;-68
2022/12/09 03:06:02;;;;;;;40.85;19.65;;;;;;;;;;5010725;28;100260;-68
2022/12/09 03:08:45;;;;;;;34.55;20.08;;;;;;;;;;5010191;28;99490;-69
2022/12/09 03:11:14;;;;;;;36.15;20.17;;;;;;;;;;5010460;28;98973;-68
2022/12/09 03:13:43;;;;;;;38.58;20.52;;;;;;;;;;5010479;28;99532;-69
2022/12/09 03:16:19;;;;;;;35.88;20.35;;;;;;;;;;5009651;28;98879;-68
2022/12/09 03:18:49;;;;;;;30.15;18.02;;;;;;;;;;5013824;28;98861;-68
2022/12/09 03:21:17;;;;;;;33.30;19.30;;;;;;;;;;5010029;28;99726;-68
2022/12/09 03:23:45;;;;;;;29.58;18.42;;;;;;;;;;5009936;28;99257;-68
2022/12/09 03:26:12;;;;;;;36.55;18.25;;;;;;;;;;5010279;28;100431;-69
2022/12/09 03:28:41;;;;;;;29.00;17.33;;;;;;;;;;5009690;28;99554;-68
2022/12/09 03:31:12;;;;;;;28.85;16.92;;;;;;;;;;5009811;28;98550;-68
2022/12/09 03:33:40;;;;;;;32.33;17.95;;;;;;;;;;5010471;28;99227;-68
2022/12/09 03:36:09;;;;;;;29.20;17.15;;;;;;;;;;5009955;28;99483;-68
2022/12/09 03:38:37;;;;;;;27.88;17.13;;;;;;;;;;5009903;28;98529;-68
2022/12/09 03:41:15;;;;;;;33.90;18.27;;;;;;;;;;5012691;28;102134;-68
2022/12/09 03:43:46;;;;;;;30.58;17.60;;;;;;;;;;5009802;28;98954;-68
2022/12/09 03:46:13;;;;;;;29.75;18.08;;;;;;;;;;5010053;28;99366;-69
2022/12/09 03:48:39;;;;;;;31.00;17.67;;;;;;;;;;5009287;28;100218;-69
2022/12/09 03:51:09;;;;;;;30.45;17.38;;;;;;;;;;5010181;28;98617;-69
2022/12/09 03:53:38;;;;;;;33.35;18.30;;;;;;;;;;5009892;28;99260;-69
2022/12/09 03:56:09;;;;;;;31.85;18.83;;;;;;;;;;5009535;28;99904;-68
2022/12/09 03:58:37;;;;;;;31.52;17.75;;;;;;;;;;5008826;28;99021;-69
2022/12/09 04:01:04;;;;;;;29.05;17.75;;;;;;;;;;5009872;28;99163;-69
2022/12/09 04:03:32;;;;;;;32.38;18.35;;;;;;;;;;5012959;28;100789;-68
2022/12/09 04:05:59;;;;;;;31.92;18.17;;;;;;;;;;5010455;28;99725;-68
2022/12/09 04:08:25;;;;;;;33.63;18.13;;;;;;;;;;5009436;28;99799;-68
2022/12/09 04:10:52;;;;;;;27.90;16.45;;;;;;;;;;5009411;28;98514;-68
2022/12/09 04:13:18;;;;;;;25.27;16.42;;;;;;;;;;5009418;28;99852;-68
2022/12/09 04:15:44;;;;;;;28.52;16.50;;;;;;;;;;5009752;28;99601;-68
2022/12/09 04:18:11;;;;;;;27.17;16.38;;;;;;;;;;5009434;28;98530;-68
2022/12/09 04:20:37;;;;;;;24.40;15.30;;;;;;;;;;5009512;28;99242;-68
2022/12/09 04:23:04;;;;;;;27.85;15.85;;;;;;;;;;5009258;28;101767;-68
2022/12/09 04:25:30;;;;;;;26.55;16.27;;;;;;;;;;5012578;28;98530;-69
2022/12/09 04:27:57;;;;;;;29.20;16.02;;;;;;;;;;5009170;28;99681;-69
2022/12/09 04:30:23;;;;;;;25.88;15.63;;;;;;;;;;5009892;28;97795;-69
2022/12/09 04:32:49;;;;;;;29.80;15.98;;;;;;;;;;5009301;28;98457;-68
2022/12/09 04:35:16;;;;;;;27.00;15.27;;;;;;;;;;5009490;28;102547;-69
2022/12/09 04:37:43;;;;;;;29.92;16.38;;;;;;;;;;5008644;28;99639;-68
2022/12/09 04:40:10;;;;;;;29.75;16.90;;;;;;;;;;5005273;28;100164;-68
2022/12/09 04:42:38;;;;;;;28.00;16.50;;;;;;;;;;4989275;28;99193;-69
2022/12/09 04:45:05;;;;;;;28.48;17.55;;;;;;;;;;4990761;28;98531;-68
2022/12/09 04:47:32;;;;;;;25.80;16.52;;;;;;;;;;5012202;28;100222;-68
2022/12/09 04:49:58;;;;;;;23.35;14.07;;;;;;;;;;5008921;28;98615;-68
2022/12/09 04:52:25;;;;;;;23.33;13.43;;;;;;;;;;5012902;28;100262;-68
2022/12/09 04:54:51;;;;;;;20.98;13.48;;;;;;;;;;5013370;28;102098;-68
2022/12/09 04:57:18;;;;;;;18.98;12.05;;;;;;;;;;5012720;28;98561;-69
2022/12/09 04:59:44;;;;;;;25.10;14.43;;;;;;;;;;5012638;28;99434;-68
2022/12/09 05:02:11;;;;;;;24.92;14.05;;;;;;;;;;5011830;28;100198;-68
2022/12/09 05:04:38;;;;;;;24.33;14.88;;;;;;;;;;5012394;28;98548;-69
2022/12/09 05:07:04;;;;;;;27.17;15.07;;;;;;;;;;5015795;28;99266;-68
2022/12/09 05:09:31;;;;;;;29.17;15.80;;;;;;;;;;5012385;28;98571;-68
2022/12/09 05:11:58;;;;;;;22.08;13.48;;;;;;;;;;5012343;28;99200;-69
2022/12/09 05:14:25;;;;;;;24.38;15.48;;;;;;;;;;5012209;28;99533;-68
2022/12/09 05:16:51;;;;;;;24.42;15.27;;;;;;;;;;5013142;28;98593;-69
2022/12/09 05:19:18;;;;;;;40.15;16.90;;;;;;;;;;5011399;28;99377;-68
2022/12/09 05:21:45;;;;;;;74.28;17.80;;;;;;;;;;5011691;28;99505;-68
2022/12/09 05:24:11;;;;;;;100.25;18.77;;;;;;;;;;5012171;28;98526;-68
2022/12/09 05:26:38;;;;;;;100.32;19.75;;;;;;;;;;5011664;28;99564;-68
2022/12/09 05:29:05;;;;;;;178.68;21.92;;;;;;;;;;5015092;28;99814;-69
2022/12/09 05:31:31;;;;;;;466.80;30.45;;;;;;;;;;5010858;28;99070;-68
2022/12/09 05:33:58;;;;;;;275.58;26.83;;;;;;;;;;5011707;28;99484;-69
2022/12/09 05:36:28;;;;;;;421.77;27.67;;;;;;;;;;5012518;28;98726;-68
2022/12/09 05:38:54;;;;;;;297.50;23.92;;;;;;;;;;5012297;28;100502;-68
2022/12/09 05:41:22;;;;;;;229.52;20.52;;;;;;;;;;5011692;28;99450;-68
2022/12/09 05:43:49;;;;;;;193.27;24.80;;;;;;;;;;5012152;28;97825;-69
2022/12/09 05:46:15;;;;;;;95.82;19.85;;;;;;;;;;5001349;28;98559;-68
2022/12/09 05:48:42;;;;;;;115.72;21.25;;;;;;;;;;4991351;28;99521;-69
2022/12/09 05:51:14;;;;;;;206.30;21.98;;;;;;;;;;5010822;28;100193;-68
2022/12/09 05:53:41;;;;;;;300.73;23.95;;;;;;;;;;5011457;28;99668;-69
2022/12/09 05:56:07;;;;;;;258.17;22.63;;;;;;;;;;5011736;28;98522;-68
2022/12/09 05:58:34;;;;;;;257.58;20.83;;;;;;;;;;5011569;28;99603;-68
2022/12/09 06:01:07;;;;;;;170.77;20.02;;;;;;;;;;5011493;28;101050;-68
2022/12/09 06:03:34;;;;;;;254.20;22.50;;;;;;;;;;5011502;28;98862;-70
2022/12/09 06:06:05;;;;;;;227.35;23.00;;;;;;;;;;5011837;28;102562;-69
2022/12/09 06:08:32;;;;;;;91.30;19.75;;;;;;;;;;5011844;28;98664;-68
2022/12/09 06:10:59;;;;;;;186.85;20.25;;;;;;;;;;5011468;28;98604;-68
2022/12/09 06:13:25;;;;;;;52.30;17.27;;;;;;;;;;5014818;28;100573;-68
2022/12/09 06:15:52;;;;;;;32.90;17.25;;;;;;;;;;5010884;28;99707;-69
2022/12/09 06:18:19;;;;;;;27.98;16.33;;;;;;;;;;5011469;28;100134;-68
2022/12/09 06:20:45;;;;;;;29.60;16.70;;;;;;;;;;5010793;28;100002;-68
2022/12/09 06:23:12;;;;;;;33.90;18.55;;;;;;;;;;5011365;28;98867;-68
2022/12/09 06:25:41;;;;;;;31.85;17.50;;;;;;;;;;5010285;28;102160;-68
2022/12/09 06:28:08;;;;;;;32.03;17.38;;;;;;;;;;5010821;28;100151;-68
2022/12/09 06:30:34;;;;;;;32.20;17.33;;;;;;;;;;5011444;28;98573;-68
2022/12/09 06:33:01;;;;;;;30.83;17.63;;;;;;;;;;5011531;28;99539;-69
2022/12/09 06:35:34;;;;;;;29.75;16.92;;;;;;;;;;5014003;28;99789;-68
2022/12/09 06:38:01;;;;;;;29.33;17.15;;;;;;;;;;5011208;28;99683;-69
2022/12/09 06:40:27;;;;;;;30.02;17.33;;;;;;;;;;5006379;28;99461;-69
2022/12/09 06:42:54;;;;;;;35.95;18.17;;;;;;;;;;4991551;28;98614;-68
2022/12/09 06:45:20;;;;;;;31.00;18.30;;;;;;;;;;4994711;28;99594;-69
2022/12/09 06:47:47;;;;;;;26.48;15.85;;;;;;;;;;5010533;28;99593;-69
2022/12/09 06:50:14;;;;;;;31.98;17.95;;;;;;;;;;5010831;28;99003;-69
2022/12/09 06:52:40;;;;;;;30.00;18.08;;;;;;;;;;5011182;28;100434;-68
2022/12/09 06:55:07;;;;;;;31.35;18.63;;;;;;;;;;5010609;28;99662;-69
2022/12/09 06:57:35;;;;;;;33.10;17.50;;;;;;;;;;5014513;28;97794;-68
2022/12/09 07:00:03;;;;;;;34.72;17.98;;;;;;;;;;5010412;28;99666;-68
2022/12/09 07:02:29;;;;;;;35.22;18.95;;;;;;;;;;5010515;28;98562;-69
2022/12/09 07:05:01;;;;;;;31.48;18.83;;;;;;;;;;5010341;28;99418;-68
2022/12/09 07:07:29;;;;;;;35.30;19.90;;;;;;;;;;5010156;28;99554;-68
2022/12/09 07:09:55;;;;;;;30.48;18.15;;;;;;;;;;5010460;28;98623;-69
2022/12/09 07:12:22;;;;;;;34.03;18.65;;;;;;;;;;5010635;28;99552;-69
2022/12/09 07:14:49;;;;;;;40.88;19.08;;;;;;;;;;5010146;28;102167;-68
2022/12/09 07:17:16;;;;;;;31.60;18.38;;;;;;;;;;5014020;28;98599;-69
2022/12/09 07:19:43;;;;;;;37.95;20.30;;;;;;;;;;5008553;28;99555;-68
2022/12/09 07:22:10;;;;;;;37.10;19.13;;;;;;;;;;5011122;28;98132;-68
2022/12/09 07:24:37;;;;;;;36.10;19.48;;;;;;;;;;5010258;28;98575;-68
2022/12/09 07:27:05;;;;;;;36.35;20.08;;;;;;;;;;5009833;28;99851;-68
2022/12/09 07:29:37;;;;;;;36.78;20.77;;;;;;;;;;5008397;28;99365;-68
2022/12/09 07:32:03;;;;;;;32.17;19.50;;;;;;;;;;5009959;28;100151;-68
2022/12/09 07:34:30;;;;;;;33.55;18.58;;;;;;;;;;5010273;28;100544;-68
2022/12/09 07:36:58;;;;;;;29.90;18.02;;;;;;;;;;5009871;28;98609;-67
2022/12/09 07:39:24;;;;;;;33.28;19.15;;;;;;;;;;5013107;28;99298;-69
2022/12/09 07:41:51;;;;;;;33.33;19.35;;;;;;;;;;5010039;28;98504;-68
2022/12/09 07:44:18;;;;;;;32.92;18.85;;;;;;;;;;5009338;28;99862;-69
2022/12/09 07:46:45;;;;;;;36.13;19.90;;;;;;;;;;5010527;28;98812;-69
2022/12/09 07:49:12;;;;;;;31.23;18.67;;;;;;;;;;5009817;28;98518;-69
2022/12/09 07:51:39;;;;;;;40.80;20.05;;;;;;;;;;5009607;28;99058;-68
2022/12/09 07:54:06;;;;;;;31.92;18.52;;;;;;;;;;5009102;28;100269;-68
2022/12/09 07:56:32;;;;;;;40.10;18.83;;;;;;;;;;5009751;28;98518;-69
2022/12/09 07:58:59;;;;;;;34.05;18.52;;;;;;;;;;5009779;28;99228;-69
2022/12/09 08:01:27;;;;;;;38.30;20.05;;;;;;;;;;5012787;28;99497;-69
2022/12/09 08:03:54;;;;;;;31.63;19.17;;;;;;;;;;5010122;28;99174;-68
2022/12/09 08:06:22;;;;;;;37.55;20.15;;;;;;;;;;5009080;28;99623;-68
2022/12/09 08:08:49;;;;;;;34.75;19.45;;;;;;;;;;5010088;28;98862;-69
2022/12/09 08:11:18;;;;;;;34.83;17.92;;;;;;;;;;5009969;28;99741;-68
2022/12/09 08:13:45;;;;;;;174.70;24.60;;;;;;;;;;5009461;28;99535;-68
2022/12/09 08:16:13;;;;;;;233.35;27.27;;;;;;;;;;5009648;28;98565;-68
2022/12/09 08:18:41;;;;;;;91.28;23.85;;;;;;;;;;5009074;28;99285;-68
2022/12/09 08:21:09;;;;;;;173.50;22.98;;;;;;;;;;5009004;28;99612;-68
2022/12/09 08:23:36;;;;;;;210.90;23.33;;;;;;;;;;5012772;28;98688;-68
2022/12/09 08:26:03;;;;;;;127.03;21.70;;;;;;;;;;5007973;28;100460;-68
2022/12/09 08:28:30;;;;;;;49.60;21.33;;;;;;;;;;5009845;28;98688;-69
2022/12/09 08:30:57;;;;;;;182.15;23.90;;;;;;;;;;5009309;28;99340;-69
2022/12/09 08:33:24;;;;;;;212.98;25.20;;;;;;;;;;5009087;28;100004;-69
2022/12/09 08:35:51;;;;;;;121.88;22.20;;;;;;;;;;5009860;28;97879;-69
2022/12/09 08:38:18;;;;;;;134.93;26.02;;;;;;;;;;5007910;28;98856;-69
2022/12/09 08:40:44;;;;;;;488.23;29.88;;;;;;;;;;5008469;28;99818;-68
2022/12/09 08:43:10;;;;;;;214.50;21.55;;;;;;;;;;5002446;28;99187;-69
2022/12/09 08:45:38;;;;;;;391.20;27.55;;;;;;;;;;5011966;28;100252;-67
2022/12/09 08:48:06;;;;;;;328.63;30.60;;;;;;;;;;5009398;28;98542;-69
2022/12/09 08:50:33;;;;;;;298.52;27.38;;;;;;;;;;5008757;28;99276;-68
2022/12/09 08:52:59;;;;;;;260.70;31.10;;;;;;;;;;5007534;28;99721;-68
2022/12/09 08:55:26;;;;;;;269.10;31.17;;;;;;;;;;5009220;28;98531;-69
2022/12/09 08:57:53;;;;;;;254.25;28.98;;;;;;;;;;5008936;28;98574;-68
2022/12/09 09:00:19;;;;;;;276.85;22.10;;;;;;;;;;5009024;28;99053;-69
2022/12/09 09:02:46;;;;;;;228.20;25.58;;;;;;;;;;5008902;28;98566;-68
2022/12/09 09:05:12;;;;;;;270.40;21.48;;;;;;;;;;5012044;28;99475;-69
2022/12/09 09:07:39;;;;;;;221.85;21.95;;;;;;;;;;5008435;28;99334;-68
2022/12/09 09:10:07;;;;;;;308.20;23.92;;;;;;;;;;5007585;28;99995;-69
2022/12/09 09:12:34;;;;;;;251.25;20.30;;;;;;;;;;5008640;28;100473;-69
2022/12/09 09:15:08;;;;;;;169.30;20.00;;;;;;;;;;5009356;28;98565;-68
2022/12/09 09:17:35;;;;;;;135.63;19.73;;;;;;;;;;5008795;28;99214;-68
2022/12/09 09:20:03;;;;;;;169.13;23.75;;;;;;;;;;5008575;28;99698;-69
2022/12/09 09:22:30;;;;;;;170.18;24.15;;;;;;;;;;5007376;28;98528;-68
2022/12/09 09:24:56;;;;;;;174.15;22.75;;;;;;;;;;5009445;28;100236;-68
2022/12/09 09:27:23;;;;;;;193.70;25.33;;;;;;;;;;5011242;28;99776;-68
2022/12/09 09:29:49;;;;;;;102.82;23.08;;;;;;;;;;5008706;28;99744;-69
2022/12/09 09:32:16;;;;;;;103.85;23.10;;;;;;;;;;5007706;28;100505;-68
2022/12/09 09:34:44;;;;;;;114.03;27.75;;;;;;;;;;5007081;28;98615;-68
2022/12/09 09:37:11;;;;;;;78.25;28.77;;;;;;;;;;5010035;28;99209;-68
2022/12/09 09:39:39;;;;;;;54.10;25.52;;;;;;;;;;5011618;28;99792;-69
2022/12/09 09:42:11;;;;;;;49.10;27.55;;;;;;;;;;5012118;28;98507;-69
2022/12/09 09:44:43;;;;;;;48.65;24.98;;;;;;;;;;5011621;28;99226;-68
2022/12/09 09:47:13;;;;;;;48.13;26.00;;;;;;;;;;4993256;28;99733;-68
2022/12/09 09:49:46;;;;;;;49.25;27.25;;;;;;;;;;5001151;28;97817;-69
2022/12/09 09:52:17;;;;;;;50.03;25.45;;;;;;;;;;5011452;28;99542;-68
2022/12/09 09:54:44;;;;;;;45.05;24.48;;;;;;;;;;5012134;28;98497;-68
2022/12/09 09:57:16;;;;;;;47.83;26.33;;;;;;;;;;5011443;28;100696;-69
2022/12/09 09:59:49;;;;;;;51.85;27.52;;;;;;;;;;5010063;28;99709;-68
2022/12/09 10:02:34;;;;;;;54.53;26.70;;;;;;;;;;5011666;28;98543;-69
2022/12/09 10:05:23;;;;;;;48.45;25.60;;;;;;;;;;5010773;28;101754;-68
2022/12/09 10:07:52;;;;;;;52.03;27.90;;;;;;;;;;5011388;28;99535;-68
2022/12/09 10:10:27;;;;;;;74.65;34.70;;;;;;;;;;5010144;28;99376;-69
2022/12/09 10:13:03;;;;;;;61.33;31.17;;;;;;;;;;5014646;28;100230;-68
2022/12/09 10:15:43;;;;;;;58.63;30.60;;;;;;;;;;5012439;28;97795;-68
2022/12/09 10:18:16;;;;;;;52.97;26.70;;;;;;;;;;5011553;28;98530;-68
2022/12/09 10:20:42;;;;;;;45.72;25.90;;;;;;;;;;5011367;28;99392;-68
2022/12/09 10:23:14;;;;;;;47.58;23.98;;;;;;;;;;5010928;28;99277;-68
2022/12/09 10:25:51;;;;;;;48.53;24.48;;;;;;;;;;5011400;28;101757;-68
2022/12/09 10:28:20;;;;;;;40.80;22.92;;;;;;;;;;5010947;28;99662;-68
2022/12/09 10:30:51;;;;;;;45.58;23.70;;;;;;;;;;5011377;28;98689;-68
2022/12/09 10:33:21;;;;;;;45.92;23.38;;;;;;;;;;5011066;28;99363;-69
2022/12/09 10:35:48;;;;;;;49.78;24.38;;;;;;;;;;5014311;28;99513;-68
2022/12/09 10:38:16;;;;;;;39.15;22.23;;;;;;;;;;5011102;28;99442;-68
2022/12/09 10:40:46;;;;;;;42.03;21.85;;;;;;;;;;5009873;28;98831;-68
2022/12/09 10:43:40;;;;;;;44.40;24.10;;;;;;;;;;5000022;28;98824;-68
2022/12/09 10:46:07;;;;;;;41.42;20.63;;;;;;;;;;5000948;28;99672;-68
2022/12/09 10:48:43;;;;;;;37.75;21.38;;;;;;;;;;5008580;28;100316;-68
2022/12/09 10:51:19;;;;;;;36.20;19.88;;;;;;;;;;5010969;28;98534;-68
2022/12/09 10:53:49;;;;;;;35.65;20.65;;;;;;;;;;5010992;28;99270;-69
2022/12/09 10:56:18;;;;;;;33.50;18.63;;;;;;;;;;5010537;28;99497;-68
2022/12/09 10:58:45;;;;;;;30.85;18.25;;;;;;;;;;5014018;28;98525;-68
2022/12/09 11:01:12;;;;;;;32.58;18.70;;;;;;;;;;5010506;28;100586;-67
2022/12/09 11:03:38;;;;;;;30.02;18.33;;;;;;;;;;5010880;28;98936;-68
2022/12/09 11:06:14;;;;;;;31.65;17.90;;;;;;;;;;5011276;28;99504;-68
2022/12/09 11:08:47;;;;;;;35.13;19.33;;;;;;;;;;5010359;28;99811;-68
2022/12/09 11:11:14;;;;;;;32.78;19.65;;;;;;;;;;5010757;28;98784;-67
2022/12/09 11:13:42;;;;;;;36.10;21.00;;;;;;;;;;5009929;28;99534;-68
2022/12/09 11:16:09;;;;;;;33.97;20.85;;;;;;;;;;5010677;28;100543;-68
2022/12/09 11:18:41;;;;;;;34.92;21.30;;;;;;;;;;5013724;28;98534;-67
2022/12/09 11:21:26;;;;;;;39.63;22.10;;;;;;;;;;5010308;28;99683;-68
2022/12/09 11:23:54;;;;;;;41.53;22.25;;;;;;;;;;5010240;28;98629;-68
2022/12/09 11:26:35;;;;;;;37.03;20.73;;;;;;;;;;5008818;28;99299;-67
2022/12/09 11:29:12;;;;;;;36.95;19.85;;;;;;;;;;5010092;28;99971;-68
2022/12/09 11:31:39;;;;;;;37.33;20.13;;;;;;;;;;5010881;28;98182;-67
2022/12/09 11:34:26;;;;;;;31.40;18.38;;;;;;;;;;5010597;28;99694;-68
2022/12/09 11:36:53;;;;;;;31.38;18.73;;;;;;;;;;5009740;28;99565;-68
2022/12/09 11:39:23;;;;;;;36.67;18.45;;;;;;;;;;5008466;28;99624;-68
2022/12/09 11:44:56;;;;;;;32.42;19.20;;;;;;;;;;5010251;28;98662;-67
2022/12/09 11:47:36;;;;;;;34.65;20.25;;;;;;;;;;4990246;28;99526;-67
2022/12/09 11:50:30;;;;;;;42.25;20.77;;;;;;;;;;5000924;28;99130;-68
2022/12/09 11:53:19;;;;;;;40.70;19.83;;;;;;;;;;5010139;28;98519;-67
2022/12/09 11:55:48;;;;;;;33.40;19.38;;;;;;;;;;5009970;28;99313;-67
2022/12/09 11:58:19;;;;;;;32.13;19.70;;;;;;;;;;5008731;28;98658;-68
2022/12/09 12:00:49;;;;;;;32.95;19.50;;;;;;;;;;5009917;28;98518;-67
2022/12/09 12:03:18;;;;;;;35.13;20.20;;;;;;;;;;5009851;28;100667;-68
2022/12/09 12:05:47;;;;;;;37.10;19.08;;;;;;;;;;5012479;28;100902;-67
2022/12/09 12:08:24;;;;;;;33.72;18.77;;;;;;;;;;5009380;28;100102;-67
2022/12/09 12:11:02;;;;;;;36.00;20.10;;;;;;;;;;5009574;28;99453;-68
2022/12/09 12:13:36;;;;;;;41.15;20.50;;;;;;;;;;5009663;28;98778;-68
2022/12/09 12:16:18;;;;;;;40.75;21.30;;;;;;;;;;5009902;28;99335;-67
2022/12/09 12:19:03;;;;;;;36.92;19.73;;;;;;;;;;5009032;28;99493;-68
2022/12/09 12:21:30;;;;;;;31.77;19.00;;;;;;;;;;5009771;28;98574;-68
2022/12/09 12:24:19;;;;;;;39.13;20.55;;;;;;;;;;5008596;28;99291;-67
2022/12/09 12:27:12;;;;;;;34.60;18.05;;;;;;;;;;5005558;28;99900;-68
2022/12/09 12:30:05;;;;;;;31.95;17.92;;;;;;;;;;5003685;28;98599;-68
2022/12/09 12:32:35;;;;;;;29.33;17.00;;;;;;;;;;5007840;28;100198;-67
2022/12/09 12:35:07;;;;;;;29.77;16.52;;;;;;;;;;5009383;28;98809;-68
2022/12/09 12:37:42;;;;;;;30.23;17.42;;;;;;;;;;5009832;28;99257;-68
2022/12/09 12:40:47;;;;;;;29.83;17.73;;;;;;;;;;5007527;28;99794;-67
2022/12/09 12:46:32;;;;;;;30.08;17.83;;;;;;;;;;4979057;28;100358;-68
2022/12/09 12:48:58;;;;;;;32.70;18.30;;;;;;;;;;4986267;28;99556;-68
2022/12/09 12:51:31;;;;;;;33.13;18.50;;;;;;;;;;4971265;28;97904;-67
2022/12/09 12:54:16;;;;;;;45.40;19.88;;;;;;;;;;4989552;28;98551;-68
2022/12/09 12:56:48;;;;;;;31.98;18.63;;;;;;;;;;4986555;28;98700;-68
2022/12/09 12:59:14;;;;;;;33.42;19.65;;;;;;;;;;4986266;28;99592;-68
2022/12/09 13:01:50;;;;;;;33.95;18.95;;;;;;;;;;4985994;28;99525;-67
2022/12/09 13:04:20;;;;;;;34.40;17.70;;;;;;;;;;4986501;28;98578;-67
2022/12/09 13:06:53;;;;;;;31.15;17.70;;;;;;;;;;4986428;28;99232;-69
2022/12/09 13:09:24;;;;;;;26.75;16.85;;;;;;;;;;4969921;28;98675;-67
2022/12/09 13:12:09;;;;;;;31.75;16.30;;;;;;;;;;4987690;28;99236;-68
2022/12/09 13:14:38;;;;;;;29.98;16.88;;;;;;;;;;5005237;28;99229;-67
2022/12/09 13:17:11;;;;;;;29.67;17.40;;;;;;;;;;5016588;28;100365;-68
2022/12/09 13:19:51;;;;;;;31.42;17.80;;;;;;;;;;5011601;28;101925;-68
2022/12/09 13:22:23;;;;;;;30.92;18.40;;;;;;;;;;5012691;28;101431;-68
2022/12/09 13:24:49;;;;;;;30.70;16.75;;;;;;;;;;5011323;28;100114;-67
2022/12/09 13:27:27;;;;;;;30.27;16.98;;;;;;;;;;5012345;28;102848;-68
2022/12/09 13:29:54;;;;;;;27.52;16.20;;;;;;;;;;5011646;28;99503;-68
2022/12/09 13:32:38;;;;;;;31.02;17.55;;;;;;;;;;5012396;28;98481;-68
2022/12/09 13:35:09;;;;;;;28.65;16.60;;;;;;;;;;5012423;28;100677;-68
2022/12/09 13:37:36;;;;;;;29.05;15.85;;;;;;;;;;5015295;28;102629;-68
2022/12/09 13:40:04;;;;;;;31.50;16.65;;;;;;;;;;5011816;28;99216;-68
2022/12/09 13:45:22;;;;;;;29.67;16.83;;;;;;;;;;5011580;28;98592;-67
2022/12/09 13:47:52;;;;;;;31.50;17.13;;;;;;;;;;5011663;28;99145;-69
2022/12/09 13:50:22;;;;;;;27.83;16.90;;;;;;;;;;5009454;28;100525;-68
2022/12/09 13:52:51;;;;;;;32.67;18.75;;;;;;;;;;5010493;28;98599;-68
2022/12/09 13:55:37;;;;;;;31.33;18.27;;;;;;;;;;5011822;28;99209;-68
2022/12/09 13:58:04;;;;;;;26.58;15.88;;;;;;;;;;5011437;28;100639;-68
2022/12/09 14:00:30;;;;;;;26.85;16.02;;;;;;;;;;5014992;28;98678;-68
2022/12/09 14:02:58;;;;;;;28.55;16.85;;;;;;;;;;5010128;28;99457;-68
2022/12/09 14:05:26;;;;;;;31.95;18.20;;;;;;;;;;5011569;28;98491;-68
2022/12/09 14:08:01;;;;;;;37.30;17.75;;;;;;;;;;5010349;28;99443;-68
2022/12/09 14:10:40;;;;;;;29.65;17.17;;;;;;;;;;5010976;28;99557;-67
2022/12/09 14:13:29;;;;;;;27.15;15.80;;;;;;;;;;5011828;28;98533;-68
2022/12/09 14:16:16;;;;;;;30.50;16.55;;;;;;;;;;5008227;28;100568;-68
2022/12/09 14:18:43;;;;;;;31.55;18.33;;;;;;;;;;5011190;28;100165;-67
2022/12/09 14:21:18;;;;;;;32.05;18.67;;;;;;;;;;5011231;28;98612;-68
2022/12/09 14:24:03;;;;;;;30.17;17.52;;;;;;;;;;5014406;28;99469;-68
2022/12/09 14:26:33;;;;;;;35.95;17.65;;;;;;;;;;5011062;28;98492;-67
2022/12/09 14:29:00;;;;;;;44.25;21.35;;;;;;;;;;5010146;28;99433;-68
2022/12/09 14:31:43;;;;;;;63.83;36.30;;;;;;;;;;5010970;28;99725;-68
2022/12/09 14:34:22;;;;;;;53.10;32.97;;;;;;;;;;5011941;28;98035;-68
2022/12/09 14:36:56;;;;;;;38.22;20.33;;;;;;;;;;5009760;28;99101;-68
2022/12/09 14:39:27;;;;;;;37.40;22.00;;;;;;;;;;5011068;28;100912;-67